El Tabacal, Argentina
Current Conditions -  °F | °C
As of 2:00 AM on Tuesday 27 Jan 2015 (Local Time) from SASJ Reporting Station
Clear Clear  
Wind Chill: 73°   Ceiling: Unl
Heat Index: 73°   Visibility: 6mi
Dew Point: 66°   Wind: 7mph
Humidity: 78%   Direction: 320°NW
Pressure: 29.83"   Gusts: NA
Location:  23.26°S, 64.25°W
Report Text: SASJ 270500Z 32006KT CAVOK 23/19 Q1010
Loading
Personal Weather Stations






























Interactive Weather Map New forecast layout! Learn more

10-Day Weather Forecast

Advertisements
Track Severe Weather on mobile